sensor_id;sensor_type;location;lat;lon;timestamp;pressure;altitude;pressure_sealevel;temperature;humidity
18275;BME280;19470;49.322;7.218;2023-04-01T00:01:12;97166.53;;;13.79;96.65
18275;BME280;19470;49.322;7.218;2023-04-01T00:03:40;97168.56;;;13.60;96.74
18275;BME280;19470;49.322;7.218;2023-04-01T00:06:07;97165.06;;;13.73;97.08
18275;BME280;19470;49.322;7.218;2023-04-01T00:08:33;97159.09;;;13.54;97.26
18275;BME280;19470;49.322;7.218;2023-04-01T00:11:00;97172.66;;;13.66;95.92
18275;BME280;19470;49.322;7.218;2023-04-01T00:13:26;97187.28;;;13.91;94.96
18275;BME280;19470;49.322;7.218;2023-04-01T00:15:55;97174.03;;;13.64;95.80
18275;BME280;19470;49.322;7.218;2023-04-01T00:18:21;97173.88;;;13.60;95.53
18275;BME280;19470;49.322;7.218;2023-04-01T00:20:49;97152.72;;;13.27;97.89
18275;BME280;19470;49.322;7.218;2023-04-01T00:23:17;97153.97;;;13.44;96.92
18275;BME280;19470;49.322;7.218;2023-04-01T00:25:44;97161.06;;;13.62;93.97
18275;BME280;19470;49.322;7.218;2023-04-01T00:28:13;97148.69;;;14.16;92.47
18275;BME280;19470;49.322;7.218;2023-04-01T00:30:39;97156.50;;;13.76;94.38
18275;BME280;19470;49.322;7.218;2023-04-01T00:33:07;97155.72;;;13.62;95.67
18275;BME280;19470;49.322;7.218;2023-04-01T00:35:34;97153.19;;;13.57;95.61
18275;BME280;19470;49.322;7.218;2023-04-01T00:38:01;97167.03;;;13.81;94.26
18275;BME280;19470;49.322;7.218;2023-04-01T00:40:30;97168.16;;;13.25;97.49
18275;BME280;19470;49.322;7.218;2023-04-01T00:42:57;97165.72;;;13.93;92.75
18275;BME280;19470;49.322;7.218;2023-04-01T00:45:32;97169.91;;;13.58;93.52
18275;BME280;19470;49.322;7.218;2023-04-01T00:48:02;97154.00;;;14.39;91.08
18275;BME280;19470;49.322;7.218;2023-04-01T00:50:33;97170.59;;;14.13;92.42
18275;BME280;19470;49.322;7.218;2023-04-01T00:53:01;97156.31;;;14.09;92.69
18275;BME280;19470;49.322;7.218;2023-04-01T00:55:32;97166.38;;;13.62;94.52
18275;BME280;19470;49.322;7.218;2023-04-01T00:58:02;97154.94;;;13.75;95.46
18275;BME280;19470;49.322;7.218;2023-04-01T01:00:30;97167.66;;;14.01;96.37
18275;BME280;19470;49.322;7.218;2023-04-01T01:02:56;97168.53;;;13.74;97.45
18275;BME280;19470;49.322;7.218;2023-04-01T01:05:29;97143.84;;;14.18;96.81
18275;BME280;19470;49.322;7.218;2023-04-01T01:11:28;97152.97;;;13.67;96.67
18275;BME280;19470;49.322;7.218;2023-04-01T01:14:01;97155.44;;;13.64;97.50
18275;BME280;19470;49.322;7.218;2023-04-01T01:16:39;97163.41;;;13.50;94.93
18275;BME280;19470;49.322;7.218;2023-04-01T01:19:18;97158.06;;;13.77;95.27
18275;BME280;19470;49.322;7.218;2023-04-01T01:22:10;97154.75;;;14.08;92.86
18275;BME280;19470;49.322;7.218;2023-04-01T01:25:09;97152.16;;;13.80;94.83
18275;BME280;19470;49.322;7.218;2023-04-01T01:27:49;97156.25;;;14.23;93.17
18275;BME280;19470;49.322;7.218;2023-04-01T01:30:51;97162.94;;;13.34;97.62
18275;BME280;19470;49.322;7.218;2023-04-01T01:33:51;97163.16;;;13.88;93.95
18275;BME280;19470;49.322;7.218;2023-04-01T01:36:25;97155.09;;;13.93;92.98
18275;BME280;19470;49.322;7.218;2023-04-01T01:38:53;97161.34;;;13.97;94.51
18275;BME280;19470;49.322;7.218;2023-04-01T01:41:23;97164.03;;;13.97;94.27
18275;BME280;19470;49.322;7.218;2023-04-01T01:43:53;97159.44;;;13.89;95.76
18275;BME280;19470;49.322;7.218;2023-04-01T01:46:24;97169.34;;;13.47;98.62
18275;BME280;19470;49.322;7.218;2023-04-01T01:48:52;97152.63;;;13.82;97.26
18275;BME280;19470;49.322;7.218;2023-04-01T01:51:21;97152.97;;;13.67;98.28
18275;BME280;19470;49.322;7.218;2023-04-01T01:53:49;97176.03;;;13.44;100.00
18275;BME280;19470;49.322;7.218;2023-04-01T01:56:17;97170.72;;;13.30;100.00
18275;BME280;19470;49.322;7.218;2023-04-01T01:58:47;97165.91;;;13.33;100.00
18275;BME280;19470;49.322;7.218;2023-04-01T02:01:19;97163.63;;;13.53;100.00
18275;BME280;19470;49.322;7.218;2023-04-01T02:03:48;97168.56;;;13.60;100.00
18275;BME280;19470;49.322;7.218;2023-04-01T02:06:17;97184.47;;;13.19;100.00
18275;BME280;19470;49.322;7.218;2023-04-01T02:08:45;97164.41;;;13.54;100.00
18275;BME280;19470;49.322;7.218;2023-04-01T02:11:16;97160.25;;;13.75;100.00
18275;BME280;19470;49.322;7.218;2023-04-01T02:13:48;97172.06;;;13.14;100.00
18275;BME280;19470;49.322;7.218;2023-04-01T02:16:20;97167.97;;;13.22;100.00
18275;BME280;19470;49.322;7.218;2023-04-01T02:18:48;97160.63;;;12.86;100.00
18275;BME280;19470;49.322;7.218;2023-04-01T02:21:17;97148.56;;;13.35;100.00
18275;BME280;19470;49.322;7.218;2023-04-01T02:23:46;97186.41;;;12.53;100.00
18275;BME280;19470;49.322;7.218;2023-04-01T02:26:15;97174.22;;;12.85;100.00
18275;BME280;19470;49.322;7.218;2023-04-01T02:28:43;97189.13;;;12.67;100.00
18275;BME280;19470;49.322;7.218;2023-04-01T02:31:13;97168.13;;;12.98;100.00
18275;BME280;19470;49.322;7.218;2023-04-01T02:33:42;97163.94;;;12.78;100.00
18275;BME280;19470;49.322;7.218;2023-04-01T02:36:11;97178.19;;;12.36;100.00
18275;BME280;19470;49.322;7.218;2023-04-01T02:38:38;97162.00;;;12.84;100.00
18275;BME280;19470;49.322;7.218;2023-04-01T02:41:05;97156.53;;;12.94;100.00
18275;BME280;19470;49.322;7.218;2023-04-01T02:43:33;97154.97;;;12.60;100.00
18275;BME280;19470;49.322;7.218;2023-04-01T02:46:00;97147.16;;;12.50;100.00
18275;BME280;19470;49.322;7.218;2023-04-01T02:48:27;97151.78;;;13.04;100.00
18275;BME280;19470;49.322;7.218;2023-04-01T02:50:53;97150.66;;;13.24;100.00
18275;BME280;19470;49.322;7.218;2023-04-01T02:53:20;97140.56;;;13.21;100.00
18275;BME280;19470;49.322;7.218;2023-04-01T02:55:46;97142.94;;;13.09;100.00
18275;BME280;19470;49.322;7.218;2023-04-01T02:58:15;97141.16;;;12.91;100.00
18275;BME280;19470;49.322;7.218;2023-04-01T03:00:43;97146.88;;;13.12;100.00
18275;BME280;19470;49.322;7.218;2023-04-01T03:03:10;97132.09;;;12.92;100.00
18275;BME280;19470;49.322;7.218;2023-04-01T03:05:37;97139.97;;;13.11;100.00
18275;BME280;19470;49.322;7.218;2023-04-01T03:08:04;97123.03;;;13.07;100.00
18275;BME280;19470;49.322;7.218;2023-04-01T03:10:31;97132.31;;;13.09;100.00
18275;BME280;19470;49.322;7.218;2023-04-01T03:12:58;97109.69;;;13.25;100.00
18275;BME280;19470;49.322;7.218;2023-04-01T03:15:24;97134.50;;;13.35;100.00
18275;BME280;19470;49.322;7.218;2023-04-01T03:17:52;97121.88;;;13.40;100.00
18275;BME280;19470;49.322;7.218;2023-04-01T03:20:18;97126.63;;;13.29;100.00
18275;BME280;19470;49.322;7.218;2023-04-01T03:22:45;97125.31;;;13.91;100.00
18275;BME280;19470;49.322;7.218;2023-04-01T03:25:12;97132.88;;;13.06;100.00
18275;BME280;19470;49.322;7.218;2023-04-01T03:27:39;97139.09;;;13.15;100.00
18275;BME280;19470;49.322;7.218;2023-04-01T03:30:07;97140.13;;;12.59;100.00
18275;BME280;19470;49.322;7.218;2023-04-01T03:32:33;97142.53;;;13.16;100.00
18275;BME280;19470;49.322;7.218;2023-04-01T03:35:01;97128.53;;;12.83;100.00
18275;BME280;19470;49.322;7.218;2023-04-01T03:37:27;97124.88;;;12.65;100.00
18275;BME280;19470;49.322;7.218;2023-04-01T03:39:54;97122.41;;;12.54;100.00
18275;BME280;19470;49.322;7.218;2023-04-01T03:42:21;97114.19;;;12.97;100.00
18275;BME280;19470;49.322;7.218;2023-04-01T03:44:47;97120.19;;;12.75;100.00
18275;BME280;19470;49.322;7.218;2023-04-01T03:47:14;97119.78;;;12.82;100.00
18275;BME280;19470;49.322;7.218;2023-04-01T03:49:40;97126.16;;;12.67;100.00
18275;BME280;19470;49.322;7.218;2023-04-01T03:52:10;97136.59;;;12.77;100.00
18275;BME280;19470;49.322;7.218;2023-04-01T03:54:37;97142.09;;;12.67;100.00
18275;BME280;19470;49.322;7.218;2023-04-01T03:57:03;97121.47;;;12.92;100.00
18275;BME280;19470;49.322;7.218;2023-04-01T03:59:30;97129.84;;;12.85;100.00
18275;BME280;19470;49.322;7.218;2023-04-01T04:01:57;97112.03;;;12.99;100.00
18275;BME280;19470;49.322;7.218;2023-04-01T04:04:23;97133.72;;;12.60;100.00
18275;BME280;19470;49.322;7.218;2023-04-01T04:06:51;97130.88;;;12.57;100.00
18275;BME280;19470;49.322;7.218;2023-04-01T04:09:19;97120.44;;;12.60;100.00
18275;BME280;19470;49.322;7.218;2023-04-01T04:11:45;97130.81;;;12.29;100.00
18275;BME280;19470;49.322;7.218;2023-04-01T04:14:12;97125.59;;;12.84;100.00
18275;BME280;19470;49.322;7.218;2023-04-01T04:16:38;97133.94;;;12.31;100.00
18275;BME280;19470;49.322;7.218;2023-04-01T04:19:05;97115.94;;;12.74;100.00
18275;BME280;19470;49.322;7.218;2023-04-01T04:21:32;97109.59;;;12.43;100.00
18275;BME280;19470;49.322;7.218;2023-04-01T04:23:58;97123.22;;;12.83;100.00
18275;BME280;19470;49.322;7.218;2023-04-01T04:26:27;97123.03;;;12.93;100.00
18275;BME280;19470;49.322;7.218;2023-04-01T04:28:54;97112.81;;;13.00;100.00
18275;BME280;19470;49.322;7.218;2023-04-01T04:31:22;97119.88;;;12.77;100.00
18275;BME280;19470;49.322;7.218;2023-04-01T04:33:48;97115.34;;;12.77;100.00
18275;BME280;19470;49.322;7.218;2023-04-01T04:36:15;97115.22;;;12.22;100.00
18275;BME280;19470;49.322;7.218;2023-04-01T04:38:42;97108.06;;;12.69;100.00
18275;BME280;19470;49.322;7.218;2023-04-01T04:41:09;97107.47;;;12.72;100.00
18275;BME280;19470;49.322;7.218;2023-04-01T04:43:38;97108.63;;;12.52;100.00
18275;BME280;19470;49.322;7.218;2023-04-01T04:46:06;97108.56;;;12.71;100.00
18275;BME280;19470;49.322;7.218;2023-04-01T04:48:32;97121.13;;;12.52;100.00
18275;BME280;19470;49.322;7.218;2023-04-01T04:50:59;97130.81;;;12.29;100.00
18275;BME280;19470;49.322;7.218;2023-04-01T04:53:25;97119.00;;;12.35;100.00
18275;BME280;19470;49.322;7.218;2023-04-01T04:55:52;97106.69;;;12.58;100.00
18275;BME280;19470;49.322;7.218;2023-04-01T04:58:19;97117.47;;;12.15;100.00
18275;BME280;19470;49.322;7.218;2023-04-01T05:00:46;97116.44;;;12.76;100.00
18275;BME280;19470;49.322;7.218;2023-04-01T05:03:13;97118.72;;;12.37;100.00
18275;BME280;19470;49.322;7.218;2023-04-01T05:05:48;97121.28;;;12.28;100.00
18275;BME280;19470;49.322;7.218;2023-04-01T05:08:15;97141.19;;;12.25;100.00
18275;BME280;19470;49.322;7.218;2023-04-01T05:10:41;97110.66;;;11.71;100.00
18275;BME280;19470;49.322;7.218;2023-04-01T05:13:08;97120.69;;;12.12;100.00
18275;BME280;19470;49.322;7.218;2023-04-01T05:15:35;97126.94;;;12.21;100.00
18275;BME280;19470;49.322;7.218;2023-04-01T05:18:03;97114.66;;;12.58;100.00
18275;BME280;19470;49.322;7.218;2023-04-01T05:20:30;97126.69;;;12.37;100.00
18275;BME280;19470;49.322;7.218;2023-04-01T05:22:57;97129.25;;;12.42;100.00
18275;BME280;19470;49.322;7.218;2023-04-01T05:25:24;97103.19;;;12.90;100.00
18275;BME280;19470;49.322;7.218;2023-04-01T05:28:12;97106.41;;;12.27;100.00
18275;BME280;19470;49.322;7.218;2023-04-01T05:30:39;97107.59;;;12.35;100.00
18275;BME280;19470;49.322;7.218;2023-04-01T05:33:07;97096.16;;;12.53;100.00
18275;BME280;19470;49.322;7.218;2023-04-01T05:35:34;97099.38;;;12.50;100.00
18275;BME280;19470;49.322;7.218;2023-04-01T05:38:01;97099.91;;;12.19;100.00
18275;BME280;19470;49.322;7.218;2023-04-01T05:40:28;97116.00;;;11.90;100.00
18275;BME280;19470;49.322;7.218;2023-04-01T05:42:54;97104.78;;;11.74;100.00
18275;BME280;19470;49.322;7.218;2023-04-01T05:45:21;97101.41;;;11.50;100.00
18275;BME280;19470;49.322;7.218;2023-04-01T05:47:48;97102.63;;;12.47;100.00
18275;BME280;19470;49.322;7.218;2023-04-01T05:50:16;97085.59;;;12.34;100.00
18275;BME280;19470;49.322;7.218;2023-04-01T05:52:42;97091.69;;;12.35;100.00
18275;BME280;19470;49.322;7.218;2023-04-01T05:55:09;97116.03;;;12.04;100.00
18275;BME280;19470;49.322;7.218;2023-04-01T05:57:36;97110.41;;;12.57;100.00
18275;BME280;19470;49.322;7.218;2023-04-01T06:00:03;97113.50;;;12.78;100.00
18275;BME280;19470;49.322;7.218;2023-04-01T06:02:30;97111.59;;;12.65;100.00
18275;BME280;19470;49.322;7.218;2023-04-01T06:05:03;97120.28;;;12.24;100.00
18275;BME280;19470;49.322;7.218;2023-04-01T06:07:38;97130.16;;;12.18;100.00
18275;BME280;19470;49.322;7.218;2023-04-01T06:10:11;97108.13;;;12.18;100.00
18275;BME280;19470;49.322;7.218;2023-04-01T06:12:47;97124.72;;;11.72;100.00
18275;BME280;19470;49.322;7.218;2023-04-01T06:15:22;97119.41;;;12.28;100.00
18275;BME280;19470;49.322;7.218;2023-04-01T06:24:19;97125.19;;;12.63;100.00
18275;BME280;19470;49.322;7.218;2023-04-01T06:26:59;97121.16;;;12.66;100.00
18275;BME280;19470;49.322;7.218;2023-04-01T06:29:53;97108.16;;;12.64;100.00
18275;BME280;19470;49.322;7.218;2023-04-01T06:32:53;97121.34;;;12.69;100.00
18275;BME280;19470;49.322;7.218;2023-04-01T06:35:35;97116.22;;;12.26;100.00
18275;BME280;19470;49.322;7.218;2023-04-01T06:38:22;97100.22;;;12.32;100.00
18275;BME280;19470;49.322;7.218;2023-04-01T06:43:47;97111.56;;;12.51;100.00
18275;BME280;19470;49.322;7.218;2023-04-01T06:46:20;97110.19;;;12.40;100.00
18275;BME280;19470;49.322;7.218;2023-04-01T06:49:03;97109.28;;;12.91;100.00
18275;BME280;19470;49.322;7.218;2023-04-01T06:51:39;97107.72;;;13.03;100.00
18275;BME280;19470;49.322;7.218;2023-04-01T06:54:12;97118.59;;;12.74;100.00
18275;BME280;19470;49.322;7.218;2023-04-01T06:56:44;97108.13;;;13.24;100.00
18275;BME280;19470;49.322;7.218;2023-04-01T06:59:14;97111.44;;;13.16;100.00
18275;BME280;19470;49.322;7.218;2023-04-01T07:01:45;97124.97;;;12.60;100.00
18275;BME280;19470;49.322;7.218;2023-04-01T07:04:14;97118.34;;;12.90;100.00
18275;BME280;19470;49.322;7.218;2023-04-01T07:06:46;97120.09;;;12.94;100.00
18275;BME280;19470;49.322;7.218;2023-04-01T07:09:17;97105.09;;;12.57;100.00
18275;BME280;19470;49.322;7.218;2023-04-01T07:11:46;97119.31;;;12.94;100.00
18275;BME280;19470;49.322;7.218;2023-04-01T07:14:17;97121.63;;;12.54;100.00
18275;BME280;19470;49.322;7.218;2023-04-01T07:16:49;97114.19;;;12.84;100.00
18275;BME280;19470;49.322;7.218;2023-04-01T07:19:21;97121.16;;;13.07;100.00
18275;BME280;19470;49.322;7.218;2023-04-01T07:21:54;97116.28;;;13.28;100.00
18275;BME280;19470;49.322;7.218;2023-04-01T07:24:24;97101.66;;;12.43;100.00
18275;BME280;19470;49.322;7.218;2023-04-01T07:26:55;97141.63;;;12.93;100.00
18275;BME280;19470;49.322;7.218;2023-04-01T07:29:22;97137.81;;;12.85;100.00
18275;BME280;19470;49.322;7.218;2023-04-01T07:35:09;97131.53;;;12.95;100.00
18275;BME280;19470;49.322;7.218;2023-04-01T07:37:47;97159.13;;;12.66;100.00
18275;BME280;19470;49.322;7.218;2023-04-01T07:40:25;97148.78;;;12.32;100.00
18275;BME280;19470;49.322;7.218;2023-04-01T07:43:09;97148.84;;;13.06;100.00
18275;BME280;19470;49.322;7.218;2023-04-01T07:45:43;97151.38;;;12.84;100.00
18275;BME280;19470;49.322;7.218;2023-04-01T07:48:22;97157.63;;;12.60;100.00
18275;BME280;19470;49.322;7.218;2023-04-01T07:50:57;97149.97;;;12.72;100.00
18275;BME280;19470;49.322;7.218;2023-04-01T07:53:33;97162.34;;;12.63;100.00
18275;BME280;19470;49.322;7.218;2023-04-01T07:56:06;97145.13;;;13.35;100.00
18275;BME280;19470;49.322;7.218;2023-04-01T07:58:45;97155.44;;;12.95;100.00
18275;BME280;19470;49.322;7.218;2023-04-01T08:01:18;97156.81;;;13.20;100.00
18275;BME280;19470;49.322;7.218;2023-04-01T08:04:03;97174.34;;;13.21;100.00
18275;BME280;19470;49.322;7.218;2023-04-01T08:06:41;97152.59;;;13.05;100.00
18275;BME280;19470;49.322;7.218;2023-04-01T08:09:17;97163.97;;;12.92;100.00
18275;BME280;19470;49.322;7.218;2023-04-01T08:11:58;97161.13;;;12.88;100.00
18275;BME280;19470;49.322;7.218;2023-04-01T08:14:36;97181.28;;;13.03;100.00
18275;BME280;19470;49.322;7.218;2023-04-01T08:17:13;97173.72;;;12.96;100.00
18275;BME280;19470;49.322;7.218;2023-04-01T08:19:59;97178.34;;;13.73;100.00
18275;BME280;19470;49.322;7.218;2023-04-01T08:22:33;97183.63;;;13.51;100.00
18275;BME280;19470;49.322;7.218;2023-04-01T08:25:02;97197.09;;;13.13;100.00
18275;BME280;19470;49.322;7.218;2023-04-01T08:27:36;97189.25;;;12.75;100.00
18275;BME280;19470;49.322;7.218;2023-04-01T08:30:16;97192.56;;;13.14;100.00
18275;BME280;19470;49.322;7.218;2023-04-01T08:32:47;97179.47;;;13.45;100.00
18275;BME280;19470;49.322;7.218;2023-04-01T08:35:24;97189.78;;;13.05;100.00
18275;BME280;19470;49.322;7.218;2023-04-01T08:37:53;97193.19;;;12.92;100.00
18275;BME280;19470;49.322;7.218;2023-04-01T08:40:41;97194.78;;;12.93;100.00
18275;BME280;19470;49.322;7.218;2023-04-01T08:43:23;97198.28;;;13.35;100.00
18275;BME280;19470;49.322;7.218;2023-04-01T08:49:15;97197.75;;;12.59;100.00
18275;BME280;19470;49.322;7.218;2023-04-01T08:55:04;97199.03;;;13.21;100.00
18275;BME280;19470;49.322;7.218;2023-04-01T08:57:53;97212.31;;;12.94;100.00
18275;BME280;19470;49.322;7.218;2023-04-01T09:00:27;97199.38;;;13.75;100.00
18275;BME280;19470;49.322;7.218;2023-04-01T09:03:14;97200.19;;;14.12;100.00
18275;BME280;19470;49.322;7.218;2023-04-01T09:06:08;97215.91;;;13.72;100.00
18275;BME280;19470;49.322;7.218;2023-04-01T09:08:52;97199.03;;;13.21;100.00
18275;BME280;19470;49.322;7.218;2023-04-01T09:11:30;97209.66;;;13.21;100.00
18275;BME280;19470;49.322;7.218;2023-04-01T09:14:19;97221.38;;;13.07;100.00
18275;BME280;19470;49.322;7.218;2023-04-01T09:20:07;97218.09;;;13.56;100.00
18275;BME280;19470;49.322;7.218;2023-04-01T09:22:53;97217.75;;;13.99;100.00
18275;BME280;19470;49.322;7.218;2023-04-01T09:25:46;97220.28;;;13.08;100.00
18275;BME280;19470;49.322;7.218;2023-04-01T09:28:16;97219.19;;;13.41;100.00
18275;BME280;19470;49.322;7.218;2023-04-01T09:31:04;97232.47;;;13.27;100.00
18275;BME280;19470;49.322;7.218;2023-04-01T09:36:38;97216.00;;;13.25;100.00
18275;BME280;19470;49.322;7.218;2023-04-01T09:39:23;97230.59;;;13.28;100.00
18275;BME280;19470;49.322;7.218;2023-04-01T09:42:02;97230.38;;;13.24;100.00
18275;BME280;19470;49.322;7.218;2023-04-01T09:44:34;97235.88;;;13.14;100.00
18275;BME280;19470;49.322;7.218;2023-04-01T09:47:15;97259.78;;;12.82;100.00
18275;BME280;19470;49.322;7.218;2023-04-01T09:49:55;97226.06;;;13.42;100.00
18275;BME280;19470;49.322;7.218;2023-04-01T09:52:32;97242.94;;;13.05;100.00
18275;BME280;19470;49.322;7.218;2023-04-01T09:55:19;97249.25;;;13.09;100.00
18275;BME280;19470;49.322;7.218;2023-04-01T10:01:17;97234.94;;;13.38;100.00
18275;BME280;19470;49.322;7.218;2023-04-01T10:04:17;97242.22;;;13.60;100.00
18275;BME280;19470;49.322;7.218;2023-04-01T10:07:37;97235.53;;;13.62;100.00
18275;BME280;19470;49.322;7.218;2023-04-01T10:10:57;97245.31;;;13.20;100.00
18275;BME280;19470;49.322;7.218;2023-04-01T10:22:43;97258.66;;;13.34;100.00
18275;BME280;19470;49.322;7.218;2023-04-01T10:25:34;97255.44;;;13.51;100.00
18275;BME280;19470;49.322;7.218;2023-04-01T10:28:24;97256.09;;;13.98;100.00
18275;BME280;19470;49.322;7.218;2023-04-01T10:34:32;97264.19;;;13.38;100.00
18275;BME280;19470;49.322;7.218;2023-04-01T10:37:15;97257.09;;;13.47;100.00
18275;BME280;19470;49.322;7.218;2023-04-01T10:43:13;97258.78;;;13.43;100.00
18275;BME280;19470;49.322;7.218;2023-04-01T10:46:15;97270.22;;;13.71;100.00
18275;BME280;19470;49.322;7.218;2023-04-01T10:49:10;97254.44;;;14.24;100.00
18275;BME280;19470;49.322;7.218;2023-04-01T10:52:22;97251.13;;;14.19;100.00
18275;BME280;19470;49.322;7.218;2023-04-01T10:55:10;97263.47;;;13.87;100.00
18275;BME280;19470;49.322;7.218;2023-04-01T10:58:20;97257.28;;;13.92;100.00
18275;BME280;19470;49.322;7.218;2023-04-01T11:01:13;97265.47;;;13.81;100.00
18275;BME280;19470;49.322;7.218;2023-04-01T11:13:00;97286.50;;;13.23;100.00
18275;BME280;19470;49.322;7.218;2023-04-01T11:16:12;97268.63;;;13.84;100.00
18275;BME280;19470;49.322;7.218;2023-04-01T11:19:09;97279.66;;;13.63;100.00
18275;BME280;19470;49.322;7.218;2023-04-01T11:21:58;97277.28;;;13.62;100.00
18275;BME280;19470;49.322;7.218;2023-04-01T11:24:59;97277.88;;;13.59;100.00
18275;BME280;19470;49.322;7.218;2023-04-01T11:27:51;97292.13;;;14.31;100.00
18275;BME280;19470;49.322;7.218;2023-04-01T11:30:25;97280.44;;;13.91;100.00
18275;BME280;19470;49.322;7.218;2023-04-01T11:32:59;97272.22;;;14.65;100.00
18275;BME280;19470;49.322;7.218;2023-04-01T11:35:50;97280.66;;;13.81;100.00
18275;BME280;19470;49.322;7.218;2023-04-01T11:38:53;97276.81;;;14.51;100.00
18275;BME280;19470;49.322;7.218;2023-04-01T11:41:32;97295.41;;;14.15;100.00
18275;BME280;19470;49.322;7.218;2023-04-01T11:44:17;97283.16;;;14.27;100.00
18275;BME280;19470;49.322;7.218;2023-04-01T11:47:03;97301.59;;;14.24;100.00
18275;BME280;19470;49.322;7.218;2023-04-01T11:49:49;97292.03;;;14.23;100.00
18275;BME280;19470;49.322;7.218;2023-04-01T11:52:29;97290.47;;;14.22;100.00
18275;BME280;19470;49.322;7.218;2023-04-01T11:55:18;97297.97;;;14.06;100.00
18275;BME280;19470;49.322;7.218;2023-04-01T11:58:11;97294.34;;;13.74;100.00
18275;BME280;19470;49.322;7.218;2023-04-01T12:01:02;97312.97;;;13.88;100.00
18275;BME280;19470;49.322;7.218;2023-04-01T12:03:47;97320.34;;;13.64;100.00
18275;BME280;19470;49.322;7.218;2023-04-01T12:06:21;97329.13;;;14.19;100.00
18275;BME280;19470;49.322;7.218;2023-04-01T12:08:57;97322.16;;;14.46;100.00
18275;BME280;19470;49.322;7.218;2023-04-01T12:11:30;97325.44;;;14.29;100.00
18275;BME280;19470;49.322;7.218;2023-04-01T12:14:07;97322.22;;;13.91;100.00
18275;BME280;19470;49.322;7.218;2023-04-01T12:17:01;97321.75;;;14.16;100.00
18275;BME280;19470;49.322;7.218;2023-04-01T12:19:38;97323.91;;;14.00;100.00
18275;BME280;19470;49.322;7.218;2023-04-01T12:22:21;97322.53;;;14.03;100.00
18275;BME280;19470;49.322;7.218;2023-04-01T12:24:55;97324.97;;;14.13;100.00
18275;BME280;19470;49.322;7.218;2023-04-01T12:27:44;97328.31;;;14.19;100.00
18275;BME280;19470;49.322;7.218;2023-04-01T12:30:32;97327.66;;;13.86;100.00
18275;BME280;19470;49.322;7.218;2023-04-01T12:33:27;97343.13;;;13.23;100.00
18275;BME280;19470;49.322;7.218;2023-04-01T12:36:09;97331.50;;;13.79;100.00
18275;BME280;19470;49.322;7.218;2023-04-01T12:38:47;97335.81;;;13.62;100.00
18275;BME280;19470;49.322;7.218;2023-04-01T12:41:24;97345.50;;;13.39;100.00
18275;BME280;19470;49.322;7.218;2023-04-01T12:44:21;97346.47;;;13.75;100.00
18275;BME280;19470;49.322;7.218;2023-04-01T12:47:03;97337.34;;;13.49;100.00
18275;BME280;19470;49.322;7.218;2023-04-01T12:49:42;97329.81;;;13.56;100.00
18275;BME280;19470;49.322;7.218;2023-04-01T12:52:17;97352.59;;;14.17;100.00
18275;BME280;19470;49.322;7.218;2023-04-01T12:55:02;97346.25;;;13.72;100.00
18275;BME280;19470;49.322;7.218;2023-04-01T12:58:01;97367.03;;;13.23;100.00
18275;BME280;19470;49.322;7.218;2023-04-01T13:00:43;97342.72;;;14.31;100.00
18275;BME280;19470;49.322;7.218;2023-04-01T13:03:27;97357.47;;;13.55;100.00
18275;BME280;19470;49.322;7.218;2023-04-01T13:06:27;97356.44;;;13.97;100.00
18275;BME280;19470;49.322;7.218;2023-04-01T13:09:06;97357.81;;;14.22;100.00
18275;BME280;19470;49.322;7.218;2023-04-01T13:11:51;97347.84;;;13.87;100.00
18275;BME280;19470;49.322;7.218;2023-04-01T13:17:22;97360.66;;;13.85;100.00
18275;BME280;19470;49.322;7.218;2023-04-01T13:19:57;97345.16;;;14.42;100.00
18275;BME280;19470;49.322;7.218;2023-04-01T13:22:35;97351.41;;;13.96;100.00
18275;BME280;19470;49.322;7.218;2023-04-01T13:25:06;97358.91;;;14.21;100.00
18275;BME280;19470;49.322;7.218;2023-04-01T13:27:44;97363.41;;;14.21;100.00
18275;BME280;19470;49.322;7.218;2023-04-01T13:30:23;97358.28;;;13.97;100.00
18275;BME280;19470;49.322;7.218;2023-04-01T13:32:58;97371.31;;;13.98;100.00
18275;BME280;19470;49.322;7.218;2023-04-01T13:35:36;97383.19;;;13.73;100.00
18275;BME280;19470;49.322;7.218;2023-04-01T13:38:25;97365.56;;;13.64;100.00
18275;BME280;19470;49.322;7.218;2023-04-01T13:41:01;97370.53;;;14.12;100.00
18275;BME280;19470;49.322;7.218;2023-04-01T13:43:35;97366.69;;;13.90;100.00
18275;BME280;19470;49.322;7.218;2023-04-01T13:46:17;97379.78;;;13.87;100.00
18275;BME280;19470;49.322;7.218;2023-04-01T13:49:11;97394.00;;;14.51;100.00
18275;BME280;19470;49.322;7.218;2023-04-01T14:01:05;97405.88;;;13.38;100.00
18275;BME280;19470;49.322;7.218;2023-04-01T14:03:58;97393.72;;;13.51;100.00
18275;BME280;19470;49.322;7.218;2023-04-01T14:06:35;97395.44;;;14.02;100.00
18275;BME280;19470;49.322;7.218;2023-04-01T14:09:19;97406.09;;;14.02;100.00
18275;BME280;19470;49.322;7.218;2023-04-01T14:11:56;97406.88;;;13.42;100.00
18275;BME280;19470;49.322;7.218;2023-04-01T14:14:39;97405.19;;;13.65;100.00
18275;BME280;19470;49.322;7.218;2023-04-01T14:17:19;97413.56;;;13.72;100.00
18275;BME280;19470;49.322;7.218;2023-04-01T14:20:00;97409.31;;;13.71;100.00
18275;BME280;19470;49.322;7.218;2023-04-01T14:22:37;97408.03;;;13.69;100.00
18275;BME280;19470;49.322;7.218;2023-04-01T14:25:22;97412.31;;;14.39;100.00
18275;BME280;19470;49.322;7.218;2023-04-01T14:27:59;97413.69;;;13.95;100.00
18275;BME280;19470;49.322;7.218;2023-04-01T14:30:54;97409.88;;;14.56;100.00
18275;BME280;19470;49.322;7.218;2023-04-01T14:33:34;97426.38;;;13.38;100.00
18275;BME280;19470;49.322;7.218;2023-04-01T14:36:24;97419.69;;;13.87;100.00
18275;BME280;19470;49.322;7.218;2023-04-01T14:39:00;97419.56;;;13.32;100.00
18275;BME280;19470;49.322;7.218;2023-04-01T14:41:43;97427.22;;;13.14;100.00
18275;BME280;19470;49.322;7.218;2023-04-01T14:44:33;97420.66;;;13.44;100.00